createdAt,value
2023-03-24T00:00:21.548Z,99561.84
2023-03-24T00:04:24.866Z,99554.13
2023-03-24T00:08:30.561Z,99550.66
2023-03-24T00:12:32.866Z,99547.19
2023-03-24T00:16:34.863Z,99535.16
2023-03-24T00:20:36.471Z,99530.84
2023-03-24T00:24:38.117Z,99523.09
2023-03-24T00:28:39.792Z,99519.63
2023-03-24T00:32:41.471Z,99516.16
2023-03-24T00:36:43.106Z,99511.84
2023-03-24T00:40:46.135Z,99496.34
2023-03-24T00:44:47.941Z,99485.13
2023-03-24T00:48:51.175Z,99474.81
2023-03-24T00:52:54.362Z,99465.34
2023-03-24T00:56:56.252Z,99457.63
2023-03-24T01:00:58.667Z,99455.06
2023-03-24T01:05:02.340Z,99449.91
2023-03-24T01:09:05.842Z,99465.41
2023-03-24T01:13:07.459Z,99454.25
2023-03-24T01:17:09.954Z,99464.56
2023-03-24T01:21:12.666Z,99450.84
2023-03-24T01:25:17.047Z,99456.84
2023-03-24T01:29:18.636Z,99443.84
2023-03-24T01:33:21.378Z,99439.47
2023-03-24T01:37:25.796Z,99447.09
2023-03-24T01:41:33.963Z,99435.16
2023-03-24T01:45:35.992Z,99442.16
2023-03-24T01:49:43.352Z,99429.28
2023-03-24T01:53:51.672Z,99431.84
2023-03-24T01:57:57.776Z,99432.72
2023-03-24T02:02:06.672Z,99426.69
2023-03-24T02:06:18.525Z,99424.16
2023-03-24T02:10:21.955Z,99419.03
2023-03-24T02:14:23.600Z,99409.63
2023-03-24T02:18:56.619Z,99411.31
2023-03-24T02:23:09.888Z,99410.38
2023-03-24T02:27:23.565Z,99400.03
2023-03-24T02:31:48.639Z,99400.03
2023-03-24T02:36:09.508Z,99378.53
2023-03-24T02:40:15.285Z,99381.09
2023-03-24T02:44:52.360Z,99371.66
2023-03-24T02:49:36.801Z,99377.66
2023-03-24T02:53:55.410Z,99367.34
2023-03-24T02:58:07.317Z,99360.53
2023-03-24T03:02:35.903Z,99359.69
2023-03-24T03:06:40.385Z,99365.66
2023-03-24T03:10:44.901Z,99362.19
2023-03-24T03:14:54.705Z,99353.59
2023-03-24T03:19:01.359Z,99368.25
2023-03-24T03:23:08.397Z,99369.16
2023-03-24T03:27:19.475Z,99376.84
2023-03-24T03:31:43.665Z,99390.59
2023-03-24T03:35:50.588Z,99394.09
2023-03-24T03:39:59.584Z,99392.34
2023-03-24T03:44:02.248Z,99398.38
2023-03-24T03:48:04.137Z,99416.44
2023-03-24T03:52:05.997Z,99413.03
2023-03-24T03:56:08.116Z,99412.19
2023-03-24T04:00:20.065Z,99413.91
2023-03-24T04:05:05.713Z,99425.06
2023-03-24T04:09:30.856Z,99417.34
2023-03-24T04:13:56.485Z,99425.06
2023-03-24T04:18:27.632Z,99447.41
2023-03-24T04:23:00.488Z,99425.06
2023-03-24T04:27:27.600Z,99455.13
2023-03-24T04:31:42.276Z,99460.28
2023-03-24T04:35:52.576Z,99452.56
2023-03-24T04:40:01.552Z,99443.13
2023-03-24T04:44:04.999Z,99436.28
2023-03-24T04:48:14.224Z,99440.56
2023-03-24T04:52:29.291Z,99438.84
2023-03-24T04:56:38.250Z,99437.09
2023-03-24T05:00:44.993Z,99438.78
2023-03-24T05:04:48.146Z,99443.00
2023-03-24T05:09:01.099Z,99438.75
2023-03-24T05:13:06.950Z,99437.88
2023-03-24T05:17:08.762Z,99435.25
2023-03-24T05:21:10.609Z,99448.09
2023-03-24T05:25:12.323Z,99451.50
2023-03-24T05:29:14.206Z,99471.22
2023-03-24T05:33:15.916Z,99469.47
2023-03-24T05:37:18.134Z,99465.19
2023-03-24T05:41:23.964Z,99477.22
2023-03-24T05:45:25.883Z,99479.81
2023-03-24T05:49:27.850Z,99481.59
2023-03-24T05:53:31.137Z,99468.75
2023-03-24T05:57:45.062Z,99461.88
2023-03-24T06:02:01.926Z,99473.91
2023-03-24T06:06:16.896Z,99470.50
2023-03-24T06:10:18.967Z,99466.25
2023-03-24T06:14:26.613Z,99473.13
2023-03-24T06:18:42.611Z,99470.59
2023-03-24T06:23:02.654Z,99483.47
2023-03-24T06:27:14.163Z,99476.59
2023-03-24T06:31:18.642Z,99478.31
2023-03-24T06:35:20.509Z,99483.53
2023-03-24T06:39:38.715Z,99478.44
2023-03-24T06:43:40.607Z,99494.81
2023-03-24T06:47:42.264Z,99489.69
2023-03-24T06:51:43.793Z,99496.63
2023-03-24T06:55:51.089Z,99506.16
2023-03-24T06:59:55.552Z,99506.19
2023-03-24T07:03:58.411Z,99502.72
2023-03-24T07:12:31.987Z,99524.28
2023-03-24T07:16:34.435Z,99526.88
2023-03-24T07:20:49.496Z,99527.72
2023-03-24T07:24:54.370Z,99515.69
2023-03-24T07:29:14.982Z,99516.53
2023-03-24T07:33:35.398Z,99503.63
2023-03-24T07:37:38.202Z,99512.19
2023-03-24T07:41:41.040Z,99516.50
2023-03-24T07:45:51.046Z,99500.19
2023-03-24T07:49:52.670Z,99508.75
2023-03-24T07:53:54.656Z,99515.63
2023-03-24T07:58:16.327Z,99524.97
2023-03-24T08:02:33.628Z,99505.28
2023-03-24T08:06:54.239Z,99501.91
2023-03-24T08:10:55.972Z,99500.22
2023-03-24T08:14:57.578Z,99517.41
2023-03-24T08:18:59.227Z,99519.09
2023-03-24T08:23:04.490Z,99522.53
2023-03-24T08:27:07.708Z,99524.28
2023-03-24T08:31:09.761Z,99524.25
2023-03-24T08:35:14.487Z,99514.00
2023-03-24T08:39:16.199Z,99510.59
2023-03-24T08:43:17.781Z,99521.78
2023-03-24T08:47:19.332Z,99528.59
2023-03-24T08:51:21.213Z,99524.31
2023-03-24T08:55:23.503Z,99526.03
2023-03-24T08:59:25.161Z,99519.22
2023-03-24T09:03:26.700Z,99526.13
2023-03-24T09:07:28.229Z,99532.13
2023-03-24T09:11:29.812Z,99535.56
2023-03-24T09:15:31.785Z,99519.31
2023-03-24T09:19:34.180Z,99521.06
2023-03-24T09:23:35.889Z,99526.22
2023-03-24T09:27:38.019Z,99538.25
2023-03-24T09:31:39.774Z,99539.06
2023-03-24T09:35:41.677Z,99545.06
2023-03-24T09:39:43.245Z,99538.19
2023-03-24T09:43:49.914Z,99545.16
2023-03-24T09:48:02.987Z,99533.09
2023-03-24T09:52:07.155Z,99547.72
2023-03-24T09:56:17.446Z,99541.69
2023-03-24T10:00:22.500Z,99541.69
2023-03-24T10:04:29.099Z,99553.72
2023-03-24T10:08:40.958Z,99542.50
2023-03-24T10:12:48.759Z,99556.22
2023-03-24T10:16:56.414Z,99560.63
2023-03-24T10:21:19.379Z,99569.25
2023-03-24T10:25:31.868Z,99572.66
2023-03-24T10:29:36.000Z,99568.38
2023-03-24T10:33:42.815Z,99572.69
2023-03-24T10:37:45.419Z,99577.88
2023-03-24T10:41:49.106Z,99583.03
2023-03-24T10:45:53.058Z,99585.59
2023-03-24T10:50:00.749Z,99594.22
2023-03-24T10:54:25.505Z,99583.06
2023-03-24T10:58:37.200Z,99579.66
2023-03-24T11:02:42.325Z,99592.56
2023-03-24T11:07:23.910Z,99620.88
2023-03-24T11:11:32.374Z,99633.59
2023-03-24T11:15:37.257Z,99658.91
2023-03-24T11:19:39.883Z,99651.59
2023-03-24T11:23:45.927Z,99649.88
2023-03-24T11:27:48.421Z,99657.75
2023-03-24T11:31:56.369Z,99658.84
2023-03-24T11:36:05.206Z,99653.91
2023-03-24T11:40:21.097Z,99652.31
2023-03-24T11:44:24.919Z,99641.19
2023-03-24T11:48:35.418Z,99637.84
2023-03-24T11:52:58.652Z,99639.59
2023-03-24T11:57:05.546Z,99631.88
2023-03-24T12:01:17.604Z,99632.81
2023-03-24T12:05:40.286Z,99633.66
2023-03-24T12:09:44.989Z,99647.50
2023-03-24T12:13:49.753Z,99638.91
2023-03-24T12:18:13.901Z,99628.56
2023-03-24T12:22:29.940Z,99634.59
2023-03-24T12:26:33.366Z,99625.22
2023-03-24T12:30:56.923Z,99628.75
2023-03-24T12:35:34.355Z,99616.69
2023-03-24T12:39:59.755Z,99625.31
2023-03-24T12:44:20.063Z,99614.91
2023-03-24T12:48:33.615Z,99607.16
2023-03-24T12:53:07.538Z,99612.28
2023-03-24T12:57:17.521Z,99621.81
2023-03-24T13:01:37.636Z,99614.91
2023-03-24T13:05:53.313Z,99605.41
2023-03-24T13:10:20.404Z,99607.91
2023-03-24T13:14:28.582Z,99601.75
2023-03-24T13:18:34.630Z,99605.84
2023-03-24T13:22:37.648Z,99615.34
2023-03-24T13:26:42.812Z,99623.91
2023-03-24T13:30:45.646Z,99609.22
2023-03-24T13:34:49.970Z,99615.31
2023-03-24T13:38:54.317Z,99607.69
2023-03-24T13:42:58.211Z,99605.13
2023-03-24T13:47:08.511Z,99606.91
2023-03-24T13:51:19.576Z,99603.34
2023-03-24T13:55:26.308Z,99596.25
2023-03-24T13:59:38.690Z,99593.59
2023-03-24T14:03:45.957Z,99578.78
2023-03-24T14:07:49.356Z,99570.13
2023-03-24T14:12:03.505Z,99573.72
2023-03-24T14:16:31.046Z,99578.78
2023-03-24T14:20:36.003Z,99578.72
2023-03-24T14:24:38.136Z,99584.81
2023-03-24T14:28:50.632Z,99562.16
2023-03-24T14:32:57.566Z,99571.78
2023-03-24T14:37:03.902Z,99570.03
2023-03-24T14:41:12.591Z,99571.63
2023-03-24T14:45:33.381Z,99572.53
2023-03-24T14:49:35.701Z,99570.88
2023-03-24T14:53:38.463Z,99559.69
2023-03-24T14:57:44.890Z,99571.09
2023-03-24T15:01:49.888Z,99575.44
2023-03-24T15:05:51.457Z,99569.38
2023-03-24T15:09:52.981Z,99558.19
2023-03-24T15:13:57.285Z,99570.34
2023-03-24T15:17:58.988Z,99563.53
2023-03-24T15:22:05.769Z,99559.25
2023-03-24T15:26:13.562Z,99557.88
2023-03-24T15:30:16.060Z,99557.88
2023-03-24T15:34:39.957Z,99540.28
2023-03-24T15:38:46.874Z,99545.84
2023-03-24T15:42:49.078Z,99535.56
2023-03-24T15:46:50.856Z,99538.09
2023-03-24T15:50:59.674Z,99542.31
2023-03-24T15:55:07.321Z,99531.03
2023-03-24T15:59:11.842Z,99546.34
2023-03-24T16:03:17.766Z,99542.97
2023-03-24T16:07:29.505Z,99536.19
2023-03-24T16:11:31.195Z,99546.78
2023-03-24T16:15:32.766Z,99529.59
2023-03-24T16:19:34.314Z,99529.91
2023-03-24T16:23:36.330Z,99531.06
2023-03-24T16:27:37.890Z,99545.16
2023-03-24T16:31:39.517Z,99542.66
2023-03-24T16:35:41.186Z,99534.97
2023-03-24T16:39:42.884Z,99547.84
2023-03-24T16:43:45.650Z,99547.88
2023-03-24T16:47:47.245Z,99555.09
2023-03-24T16:51:48.889Z,99551.75
2023-03-24T16:55:50.723Z,99554.50
2023-03-24T16:59:52.288Z,99557.13
2023-03-24T17:03:54.714Z,99558.91
2023-03-24T17:07:57.650Z,99574.44
2023-03-24T17:12:02.048Z,99571.84
2023-03-24T17:16:04.031Z,99574.44
2023-03-24T17:20:06.529Z,99589.13
2023-03-24T17:24:10.792Z,99581.38
2023-03-24T17:28:17.063Z,99596.88
2023-03-24T17:32:20.526Z,99611.50
2023-03-24T17:36:24.286Z,99619.22
2023-03-24T17:40:25.912Z,99626.09
2023-03-24T17:44:28.138Z,99627.78
2023-03-24T17:48:30.230Z,99632.94
2023-03-24T17:52:31.915Z,99638.94
2023-03-24T17:56:33.534Z,99639.78
2023-03-24T18:00:35.967Z,99647.47
2023-03-24T18:04:37.558Z,99657.72
2023-03-24T18:08:39.605Z,99658.56
2023-03-24T18:12:41.366Z,99661.13
2023-03-24T18:16:42.935Z,99668.81
2023-03-24T18:20:44.509Z,99668.78
2023-03-24T18:24:46.172Z,99674.72
2023-03-24T18:28:48.011Z,99674.69
2023-03-24T18:32:49.620Z,99673.72
2023-03-24T18:36:51.539Z,99677.91
2023-03-24T18:41:00.290Z,99683.88
2023-03-24T18:45:01.909Z,99685.53
2023-03-24T18:49:04.091Z,99686.31
2023-03-24T18:53:05.738Z,99692.28
2023-03-24T18:57:07.375Z,99687.94
2023-03-24T19:01:12.212Z,99681.06
2023-03-24T19:05:15.256Z,99684.53
2023-03-24T19:09:20.277Z,99684.59
2023-03-24T19:13:21.922Z,99690.69
2023-03-24T19:17:23.717Z,99690.75
2023-03-24T19:21:25.740Z,99694.19
2023-03-24T19:25:27.462Z,99700.16
2023-03-24T19:29:29.041Z,99699.31
2023-03-24T19:33:30.714Z,99700.16
2023-03-24T19:37:33.005Z,99687.25
2023-03-24T19:41:34.563Z,99692.41
2023-03-24T19:45:36.489Z,99711.31
2023-03-24T19:49:38.544Z,99718.78
2023-03-24T19:53:40.144Z,99712.59
2023-03-24T19:57:41.862Z,99707.44
2023-03-24T20:01:43.496Z,99717.78
2023-03-24T20:05:45.194Z,99719.47
2023-03-24T20:09:46.727Z,99723.69
2023-03-24T20:13:48.323Z,99729.56
2023-03-24T20:17:50.632Z,99738.81
2023-03-24T20:21:52.569Z,99731.94
2023-03-24T20:25:57.676Z,99735.44
2023-03-24T20:29:59.234Z,99707.03
2023-03-24T20:34:00.858Z,99717.31
2023-03-24T20:38:02.665Z,99709.56
2023-03-24T20:42:04.365Z,99713.88
2023-03-24T20:46:08.279Z,99734.38
2023-03-24T20:50:10.706Z,99761.72
2023-03-24T20:54:12.400Z,99759.84
2023-03-24T20:58:14.379Z,99759.81
2023-03-24T21:02:16.154Z,99789.75
2023-03-24T21:06:19.028Z,99809.34
2023-03-24T21:10:20.772Z,99784.31
2023-03-24T21:14:22.497Z,99781.38
2023-03-24T21:18:24.194Z,99779.41
2023-03-24T21:22:26.073Z,99782.69
2023-03-24T21:26:27.902Z,99778.28
2023-03-24T21:30:30.326Z,99782.75
2023-03-24T21:34:32.266Z,99788.94
2023-03-24T21:38:34.199Z,99788.97
2023-03-24T21:42:36.749Z,99783.09
2023-03-24T21:46:38.305Z,99783.00
2023-03-24T21:50:39.885Z,99773.41
2023-03-24T21:54:41.476Z,99762.97
2023-03-24T21:58:43.090Z,99758.50
2023-03-24T22:02:47.334Z,99754.97
2023-03-24T22:06:49.137Z,99762.50
2023-03-24T22:10:54.230Z,99765.06
2023-03-24T22:14:55.839Z,99770.50
2023-03-24T22:18:58.624Z,99768.06
2023-03-24T22:23:03.359Z,99772.28
2023-03-24T22:27:04.963Z,99774.91
2023-03-24T22:31:09.047Z,99773.19
2023-03-24T22:35:10.729Z,99766.19
2023-03-24T22:39:12.392Z,99769.69
2023-03-24T22:43:14.050Z,99776.47
2023-03-24T22:47:15.702Z,99765.06
2023-03-24T22:51:19.323Z,99755.59
2023-03-24T22:55:21.035Z,99761.53
2023-03-24T22:59:24.566Z,99783.69
2023-03-24T23:03:26.440Z,99781.94
2023-03-24T23:07:28.733Z,99796.44
2023-03-24T23:11:31.341Z,99801.44
2023-03-24T23:15:33.201Z,99811.69
2023-03-24T23:19:37.029Z,99830.31
2023-03-24T23:23:39.806Z,99834.50
2023-03-24T23:27:42.321Z,99842.25
2023-03-24T23:31:43.975Z,99853.31
2023-03-24T23:35:45.697Z,99866.13
2023-03-24T23:39:50.173Z,99852.97
2023-03-24T23:43:52.945Z,99869.84
2023-03-24T23:47:54.789Z,99857.88
2023-03-24T23:51:56.325Z,99860.44
2023-03-24T23:56:06.647Z,99856.97
